Vanquish — PHCU — position and weather

sailwx.info

Track history (hours):
 
Tides and Currents Weather Stations Pressure Air Temp Water Temp Dewpoint Dewpoint Depression Visibility Wind Speed Wind Dir Waves Ship Positions

Vanquish

Last reported at 2015-Feb-28 23:31 UTC. Time now 2015-Mar-01 00:34 UTC.
Position N 51°30' W 002°42'.

MMSI: 246138952.

Date/timePositionNaut miles runAvg speedWind from/ knotsBaromVisibWave heightAir tempDewpointWater temp
2015-Feb-28 23:31N 51°30' W 002°42'0 0.0
2015-Feb-28 22:31N 51°30' W 002°42'0 0.0
2015-Feb-28 21:31N 51°30' W 002°42'0 0.0
2015-Feb-28 20:31N 51°30' W 002°42'0 0.0
2015-Feb-28 19:31N 51°30' W 002°42'0 0.0
2015-Feb-28 18:31N 51°30' W 002°42'0 0.0
2015-Feb-28 17:31N 51°30' W 002°42'0 0.0
2015-Feb-28 16:31N 51°30' W 002°42'0 0.0
2015-Feb-28 15:31N 51°30' W 002°42'0 0.3
2015-Feb-28 14:33N 51°30' W 002°42'3 2.6
2015-Feb-28 13:34N 51°30' W 002°47'1515.1
2015-Feb-28 12:33N 51°22' W 003°07'185 9.7
2015-Feb-27 17:33N 53°54' W 005°60'9 0.9
2015-Feb-27 07:33N 54°02' W 006°07'18810.8
2015-Feb-26 14:14N 51°21' W 003°26'1015.4
2015-Feb-26 13:33N 51°21' W 003°10'1413.9
2015-Feb-26 12:33N 51°28' W 002°51'6 5.6
2015-Feb-26 11:33N 51°30' W 002°42'0 0.0
2015-Feb-26 10:31N 51°30' W 002°42'0 0.0
2015-Feb-26 09:31N 51°30' W 002°42'0 0.0
2015-Feb-26 08:31N 51°30' W 002°42'0 0.0
2015-Feb-26 07:31N 51°30' W 002°42'0 0.0
2015-Feb-26 06:31N 51°30' W 002°42'0 0.0
2015-Feb-26 05:31N 51°30' W 002°42'0 0.0
2015-Feb-26 04:31N 51°30' W 002°42'0 0.0
2015-Feb-26 03:31N 51°30' W 002°42'0 0.0
2015-Feb-26 02:31N 51°30' W 002°42'0 0.0
2015-Feb-26 01:31N 51°30' W 002°42'0 0.2
2015-Feb-26 00:33N 51°30' W 002°42'1 0.7
2015-Feb-25 23:33N 51°31' W 002°43'7 6.7
2015-Feb-25 22:33N 51°28' W 002°53'1111.0
2015-Feb-25 21:33N 51°22' W 003°07'185 6.9
2015-Feb-24 18:33N 53°55' W 005°60'  
2015-Feb-22 12:32N 53°60' W 006°03'18512.0
2015-Feb-21 21:10N 51°22' W 003°24'813.7
2015-Feb-21 20:33N 51°23' W 003°11'1111.3
2015-Feb-21 19:33N 51°28' W 002°54'8 7.6
2015-Feb-21 18:33N 51°30' W 002°43'0 0.3
2015-Feb-21 17:32N 51°30' W 002°42'0 0.0
2015-Feb-21 16:33N 51°30' W 002°42'0 0.0
2015-Feb-21 15:32N 51°30' W 002°42'0 0.0
2015-Feb-21 14:32N 51°30' W 002°42'0 0.0
2015-Feb-21 13:32N 51°30' W 002°42'0 0.0
2015-Feb-21 12:32N 51°30' W 002°42'0 0.0
2015-Feb-21 11:32N 51°30' W 002°42'0 0.0
2015-Feb-21 10:33N 51°30' W 002°42'0 0.0
2015-Feb-21 09:32N 51°30' W 002°42'0 0.0
2015-Feb-21 08:32N 51°30' W 002°42'0 0.0
2015-Feb-21 07:32N 51°30' W 002°42'0 0.0
2015-Feb-21 06:32N 51°30' W 002°42'0 0.0
2015-Feb-21 05:32N 51°30' W 002°42'0 0.0
2015-Feb-21 04:32N 51°30' W 002°42'0 0.0
2015-Feb-21 03:32N 51°30' W 002°42'0 0.0
2015-Feb-21 02:32N 51°30' W 002°42'0 0.0
2015-Feb-21 01:32N 51°30' W 002°42'0 0.0
2015-Feb-21 00:32N 51°30' W 002°42'0 0.0
2015-Feb-20 23:32N 51°30' W 002°42'0 0.0
2015-Feb-20 22:32N 51°30' W 002°42'0 0.2
2015-Feb-20 21:32N 51°31' W 002°42'0 0.0
2015-Feb-20 20:32N 51°31' W 002°42'0 0.0
2015-Feb-20 19:33N 51°31' W 002°42'1 0.5
2015-Feb-20 18:33N 51°30' W 002°43'2 1.9
2015-Feb-20 17:33N 51°30' W 002°46'1616.1
2015-Feb-20 16:33N 51°22' W 003°08'18410.2
2015-Feb-19 22:33N 53°54' W 005°59'1210.4
2015-Feb-19 21:24N 54°04' W 006°11'  
Track history (hours):
 
Tides and Currents Weather Stations Pressure Air Temp Water Temp Dewpoint Dewpoint Depression Visibility Wind Speed Wind Dir Waves Ship Positions

Vanquish

Last reported at 2015-Feb-28 23:31 UTC. Time now 2015-Mar-01 00:34 UTC.
Position N 51°30' W 002°42'.

MMSI: 246138952.

Date/timePositionNaut miles runAvg speedWind from/ knotsBaromVisibWave heightAir tempDewpointWater temp
2015-Feb-28 23:31N 51°30' W 002°42'0 0.0
2015-Feb-28 22:31N 51°30' W 002°42'0 0.0
2015-Feb-28 21:31N 51°30' W 002°42'0 0.0
2015-Feb-28 20:31N 51°30' W 002°42'0 0.0
2015-Feb-28 19:31N 51°30' W 002°42'0 0.0
2015-Feb-28 18:31N 51°30' W 002°42'0 0.0
2015-Feb-28 17:31N 51°30' W 002°42'0 0.0
2015-Feb-28 16:31N 51°30' W 002°42'0 0.0
2015-Feb-28 15:31N 51°30' W 002°42'0 0.3
2015-Feb-28 14:33N 51°30' W 002°42'3 2.6
2015-Feb-28 13:34N 51°30' W 002°47'1515.1
2015-Feb-28 12:33N 51°22' W 003°07'185 9.7
2015-Feb-27 17:33N 53°54' W 005°60'9 0.9
2015-Feb-27 07:33N 54°02' W 006°07'18810.8
2015-Feb-26 14:14N 51°21' W 003°26'1015.4
2015-Feb-26 13:33N 51°21' W 003°10'1413.9
2015-Feb-26 12:33N 51°28' W 002°51'6 5.6
2015-Feb-26 11:33N 51°30' W 002°42'0 0.0
2015-Feb-26 10:31N 51°30' W 002°42'0 0.0
2015-Feb-26 09:31N 51°30' W 002°42'0 0.0
2015-Feb-26 08:31N 51°30' W 002°42'0 0.0
2015-Feb-26 07:31N 51°30' W 002°42'0 0.0
2015-Feb-26 06:31N 51°30' W 002°42'0 0.0
2015-Feb-26 05:31N 51°30' W 002°42'0 0.0
2015-Feb-26 04:31N 51°30' W 002°42'0 0.0
2015-Feb-26 03:31N 51°30' W 002°42'0 0.0
2015-Feb-26 02:31N 51°30' W 002°42'0 0.0
2015-Feb-26 01:31N 51°30' W 002°42'0 0.2
2015-Feb-26 00:33N 51°30' W 002°42'1 0.7
2015-Feb-25 23:33N 51°31' W 002°43'7 6.7
2015-Feb-25 22:33N 51°28' W 002°53'1111.0
2015-Feb-25 21:33N 51°22' W 003°07'185 6.9
2015-Feb-24 18:33N 53°55' W 005°60'  
2015-Feb-22 12:32N 53°60' W 006°03'18512.0
2015-Feb-21 21:10N 51°22' W 003°24'813.7
2015-Feb-21 20:33N 51°23' W 003°11'1111.3
2015-Feb-21 19:33N 51°28' W 002°54'8 7.6
2015-Feb-21 18:33N 51°30' W 002°43'0 0.3
2015-Feb-21 17:32N 51°30' W 002°42'0 0.0
2015-Feb-21 16:33N 51°30' W 002°42'0 0.0
2015-Feb-21 15:32N 51°30' W 002°42'0 0.0
2015-Feb-21 14:32N 51°30' W 002°42'0 0.0
2015-Feb-21 13:32N 51°30' W 002°42'0 0.0
2015-Feb-21 12:32N 51°30' W 002°42'0 0.0
2015-Feb-21 11:32N 51°30' W 002°42'0 0.0
2015-Feb-21 10:33N 51°30' W 002°42'0 0.0
2015-Feb-21 09:32N 51°30' W 002°42'0 0.0
2015-Feb-21 08:32N 51°30' W 002°42'0 0.0
2015-Feb-21 07:32N 51°30' W 002°42'0 0.0
2015-Feb-21 06:32N 51°30' W 002°42'0 0.0
2015-Feb-21 05:32N 51°30' W 002°42'0 0.0
2015-Feb-21 04:32N 51°30' W 002°42'0 0.0
2015-Feb-21 03:32N 51°30' W 002°42'0 0.0
2015-Feb-21 02:32N 51°30' W 002°42'0 0.0
2015-Feb-21 01:32N 51°30' W 002°42'0 0.0
2015-Feb-21 00:32N 51°30' W 002°42'0 0.0
2015-Feb-20 23:32N 51°30' W 002°42'0 0.0
2015-Feb-20 22:32N 51°30' W 002°42'0 0.2
2015-Feb-20 21:32N 51°31' W 002°42'0 0.0
2015-Feb-20 20:32N 51°31' W 002°42'0 0.0
2015-Feb-20 19:33N 51°31' W 002°42'1 0.5
2015-Feb-20 18:33N 51°30' W 002°43'2 1.9
2015-Feb-20 17:33N 51°30' W 002°46'1616.1
2015-Feb-20 16:33N 51°22' W 003°08'18410.2
2015-Feb-19 22:33N 53°54' W 005°59'1210.4
2015-Feb-19 21:24N 54°04' W 006°11'  

Dump ship's entire track history